createdAt,value
2023-03-29T00:02:33.642Z,101026.60
2023-03-29T00:05:04.892Z,101024.10
2023-03-29T00:07:35.344Z,101024.52
2023-03-29T00:10:07.919Z,101022.68
2023-03-29T00:12:39.007Z,101020.74
2023-03-29T00:15:11.145Z,101018.54
2023-03-29T00:17:41.553Z,101016.67
2023-03-29T00:20:13.836Z,101021.06
2023-03-29T00:22:46.723Z,101019.27
2023-03-29T00:25:17.359Z,101023.52
2023-03-29T00:27:47.751Z,101023.73
2023-03-29T00:30:18.422Z,101023.63
2023-03-29T00:32:48.885Z,101025.15
2023-03-29T00:35:19.709Z,101025.48
2023-03-29T00:37:52.906Z,101028.23
2023-03-29T00:40:23.497Z,101024.86
2023-03-29T00:42:56.293Z,101021.25
2023-03-29T00:45:30.259Z,101023.51
2023-03-29T00:48:03.126Z,101019.77
2023-03-29T00:50:39.462Z,101022.54
2023-03-29T00:53:14.034Z,101017.18
2023-03-29T00:55:49.768Z,101014.04
2023-03-29T00:58:26.308Z,101010.59
2023-03-29T01:01:02.645Z,101007.67
2023-03-29T01:03:41.578Z,101010.00
2023-03-29T01:06:15.417Z,101008.73
2023-03-29T01:08:51.035Z,101002.21
2023-03-29T01:11:26.605Z,100996.10
2023-03-29T01:14:00.924Z,100993.94
2023-03-29T01:16:32.907Z,100993.00
2023-03-29T01:19:05.452Z,100987.81
2023-03-29T01:21:42.726Z,100983.83
2023-03-29T01:24:32.378Z,100979.80
2023-03-29T01:27:11.343Z,100982.61
2023-03-29T01:29:47.965Z,100979.95
2023-03-29T01:32:23.357Z,100976.73
2023-03-29T01:34:58.702Z,100980.16
2023-03-29T01:37:34.563Z,100976.40
2023-03-29T01:40:06.304Z,100979.11
2023-03-29T01:42:47.829Z,100980.97
2023-03-29T01:45:25.617Z,100976.37
2023-03-29T01:48:02.652Z,100971.59
2023-03-29T01:50:35.607Z,100970.41
2023-03-29T01:53:10.703Z,100967.26
2023-03-29T01:55:44.947Z,100968.07
2023-03-29T01:58:18.192Z,100966.73
2023-03-29T02:00:54.033Z,100971.69
2023-03-29T02:03:30.946Z,100966.95
2023-03-29T02:06:03.466Z,100969.86
2023-03-29T02:08:33.963Z,100973.10
2023-03-29T02:11:04.663Z,100970.59
2023-03-29T02:13:36.836Z,100969.58
2023-03-29T02:16:12.871Z,100970.97
2023-03-29T02:18:45.543Z,100970.34
2023-03-29T02:21:21.922Z,100967.76
2023-03-29T02:23:54.932Z,100967.73
2023-03-29T02:26:26.271Z,100963.96
2023-03-29T02:28:56.671Z,100962.56
2023-03-29T02:31:30.257Z,100957.39
2023-03-29T02:34:07.742Z,100956.60
2023-03-29T02:36:44.200Z,100956.37
2023-03-29T02:39:16.797Z,100950.02
2023-03-29T02:41:50.553Z,100949.38
2023-03-29T02:44:24.003Z,100949.75
2023-03-29T02:46:59.243Z,100945.90
2023-03-29T02:49:29.983Z,100943.07
2023-03-29T02:52:08.467Z,100941.07
2023-03-29T02:54:43.247Z,100938.29
2023-03-29T02:57:13.795Z,100932.33
2023-03-29T02:59:45.010Z,100936.57
2023-03-29T03:02:17.694Z,100936.08
2023-03-29T03:04:48.272Z,100926.97
2023-03-29T03:07:20.052Z,100930.01
2023-03-29T03:09:50.342Z,100929.59
2023-03-29T03:12:20.787Z,100922.64
2023-03-29T03:14:51.370Z,100923.39
2023-03-29T03:17:23.133Z,100923.60
2023-03-29T03:19:54.266Z,100917.54
2023-03-29T03:22:24.927Z,100912.73
2023-03-29T03:24:56.080Z,100916.29
2023-03-29T03:27:27.995Z,100915.54
2023-03-29T03:29:58.618Z,100912.87
2023-03-29T03:32:47.963Z,100908.87
2023-03-29T03:35:39.151Z,100905.25
2023-03-29T03:38:10.843Z,100898.46
2023-03-29T03:40:41.221Z,100894.23
2023-03-29T03:43:11.783Z,100892.67
2023-03-29T03:45:43.365Z,100886.20
2023-03-29T03:48:18.566Z,100883.79
2023-03-29T03:51:03.718Z,100878.45
2023-03-29T03:53:37.100Z,100873.62
2023-03-29T03:56:17.163Z,100877.14
2023-03-29T03:59:07.222Z,100872.73
2023-03-29T04:01:56.676Z,100878.04
2023-03-29T04:04:28.805Z,100876.49
2023-03-29T04:07:17.918Z,100873.40
2023-03-29T04:10:03.422Z,100877.90
2023-03-29T04:12:48.059Z,100876.02
2023-03-29T04:15:20.394Z,100872.94
2023-03-29T04:17:57.794Z,100874.09
2023-03-29T04:20:33.291Z,100871.13
2023-03-29T04:23:04.134Z,100868.50
2023-03-29T04:25:34.773Z,100866.73
2023-03-29T04:28:29.900Z,100864.89
2023-03-29T04:31:13.030Z,100866.84
2023-03-29T04:34:00.195Z,100866.76
2023-03-29T04:36:31.907Z,100872.70
2023-03-29T04:39:04.522Z,100867.44
2023-03-29T04:41:35.325Z,100866.53
2023-03-29T04:44:09.027Z,100866.80
2023-03-29T04:46:40.334Z,100867.42
2023-03-29T04:49:30.036Z,100873.45
2023-03-29T04:52:04.554Z,100869.99
2023-03-29T04:54:37.186Z,100873.41
2023-03-29T04:57:28.428Z,100874.19
2023-03-29T05:00:08.452Z,100874.86
2023-03-29T05:02:57.871Z,100875.15
2023-03-29T05:05:29.127Z,100877.61
2023-03-29T05:08:00.152Z,100879.79
2023-03-29T05:10:36.957Z,100879.84
2023-03-29T05:13:07.555Z,100877.92
2023-03-29T05:15:39.566Z,100874.45
2023-03-29T05:18:11.433Z,100872.86
2023-03-29T05:20:42.214Z,100870.29
2023-03-29T05:23:13.932Z,100868.58
2023-03-29T05:26:03.850Z,100869.39
2023-03-29T05:28:34.542Z,100868.23
2023-03-29T05:31:07.056Z,100867.07
2023-03-29T05:33:39.759Z,100860.62
2023-03-29T05:36:13.713Z,100857.73
2023-03-29T05:38:47.949Z,100853.45
2023-03-29T05:41:18.922Z,100851.67
2023-03-29T05:44:01.223Z,100851.27
2023-03-29T05:46:31.945Z,100846.52
2023-03-29T05:49:05.198Z,100852.19
2023-03-29T05:51:58.831Z,100852.34
2023-03-29T05:54:29.991Z,100854.89
2023-03-29T05:57:00.886Z,100852.80
2023-03-29T05:59:32.239Z,100848.08
2023-03-29T06:02:04.961Z,100844.66
2023-03-29T06:04:36.730Z,100843.20
2023-03-29T06:07:27.600Z,100840.37
2023-03-29T06:10:30.048Z,100835.85
2023-03-29T06:13:13.393Z,100834.06
2023-03-29T06:15:44.028Z,100830.55
2023-03-29T06:18:15.349Z,100831.47
2023-03-29T06:20:48.685Z,100833.90
2023-03-29T06:23:19.760Z,100833.16
2023-03-29T06:25:51.695Z,100833.23
2023-03-29T06:28:22.794Z,100833.28
2023-03-29T06:30:56.461Z,100834.12
2023-03-29T06:33:28.923Z,100832.52
2023-03-29T06:36:07.599Z,100832.59
2023-03-29T06:38:38.717Z,100830.59
2023-03-29T06:41:32.132Z,100826.97
2023-03-29T06:44:11.568Z,100824.80
2023-03-29T06:46:53.033Z,100824.23
2023-03-29T06:49:24.317Z,100816.20
2023-03-29T06:52:08.368Z,100812.13
2023-03-29T06:54:39.339Z,100813.78
2023-03-29T06:57:10.502Z,100807.82
2023-03-29T06:59:41.723Z,100805.77
2023-03-29T07:02:18.365Z,100803.07
2023-03-29T07:04:57.151Z,100806.00
2023-03-29T07:07:57.117Z,100812.38
2023-03-29T07:10:41.295Z,100809.35
2023-03-29T07:13:30.714Z,100812.88
2023-03-29T07:16:02.201Z,100814.85
2023-03-29T07:18:44.792Z,100812.79
2023-03-29T07:21:20.577Z,100812.36
2023-03-29T07:23:52.174Z,100811.19
2023-03-29T07:26:29.009Z,100809.47
2023-03-29T07:29:01.018Z,100813.55
2023-03-29T07:31:33.004Z,100815.24
2023-03-29T07:34:22.693Z,100807.47
2023-03-29T07:36:53.237Z,100811.27
2023-03-29T07:39:24.209Z,100807.80
2023-03-29T07:42:14.759Z,100807.58
2023-03-29T07:44:45.268Z,100803.27
2023-03-29T07:47:16.698Z,100807.20
2023-03-29T07:49:48.040Z,100802.08
2023-03-29T07:52:18.391Z,100800.71
2023-03-29T07:54:48.987Z,100799.83
2023-03-29T07:57:36.263Z,100790.66
2023-03-29T08:00:15.235Z,100790.14
2023-03-29T08:02:49.733Z,100792.03
2023-03-29T08:05:37.671Z,100790.62
2023-03-29T08:08:15.198Z,100788.86
2023-03-29T08:10:59.429Z,100781.76
2023-03-29T08:13:38.060Z,100784.91
2023-03-29T08:16:31.374Z,100783.81
2023-03-29T08:19:08.058Z,100784.06
2023-03-29T08:21:52.106Z,100781.23
2023-03-29T08:24:22.842Z,100782.45
2023-03-29T08:27:01.504Z,100775.30
2023-03-29T08:29:32.198Z,100775.26
2023-03-29T08:32:02.960Z,100775.84
2023-03-29T08:34:35.573Z,100768.11
2023-03-29T08:37:19.763Z,100764.45
2023-03-29T08:39:51.649Z,100762.01
2023-03-29T08:43:06.350Z,100754.20
2023-03-29T08:46:02.163Z,100754.58
2023-03-29T08:48:36.252Z,100752.59
2023-03-29T08:51:13.122Z,100751.95
2023-03-29T08:53:47.609Z,100747.64
2023-03-29T08:56:26.249Z,100745.62
2023-03-29T08:59:22.485Z,100742.58
2023-03-29T09:01:56.802Z,100741.76
2023-03-29T09:04:32.975Z,100745.27
2023-03-29T09:07:24.630Z,100745.82
2023-03-29T09:09:58.281Z,100745.48
2023-03-29T09:12:45.672Z,100743.59
2023-03-29T09:15:25.016Z,100737.82
2023-03-29T09:18:13.030Z,100737.70
2023-03-29T09:20:55.158Z,100735.09
2023-03-29T09:23:43.084Z,100731.27
2023-03-29T09:26:39.888Z,100732.65
2023-03-29T09:29:33.182Z,100730.39
2023-03-29T09:32:12.437Z,100730.21
2023-03-29T09:34:50.314Z,100727.61
2023-03-29T09:37:29.934Z,100720.84
2023-03-29T09:40:02.074Z,100717.04
2023-03-29T09:42:50.634Z,100717.79
2023-03-29T09:45:21.192Z,100714.34
2023-03-29T09:47:57.744Z,100708.95
2023-03-29T09:50:34.122Z,100711.05
2023-03-29T09:53:08.109Z,100710.71
2023-03-29T09:55:40.990Z,100705.48
2023-03-29T09:58:32.946Z,100705.83
2023-03-29T10:01:08.752Z,100698.48
2023-03-29T10:03:41.263Z,100696.20
2023-03-29T10:06:17.453Z,100696.35
2023-03-29T10:08:56.657Z,100692.87
2023-03-29T10:11:33.933Z,100695.66
2023-03-29T10:14:07.167Z,100684.15
2023-03-29T10:16:41.728Z,100684.47
2023-03-29T10:19:22.435Z,100675.52
2023-03-29T10:21:55.251Z,100675.79
2023-03-29T10:24:28.153Z,100666.73
2023-03-29T10:27:02.435Z,100667.23
2023-03-29T10:29:39.503Z,100661.30
2023-03-29T10:32:16.722Z,100667.90
2023-03-29T10:34:48.740Z,100671.39
2023-03-29T10:37:21.293Z,100660.54
2023-03-29T10:39:53.274Z,100659.27
2023-03-29T10:42:27.427Z,100655.52
2023-03-29T10:45:00.351Z,100652.86
2023-03-29T10:47:35.153Z,100645.80
2023-03-29T10:50:10.411Z,100638.27
2023-03-29T10:52:42.589Z,100642.20
2023-03-29T10:55:15.714Z,100636.92
2023-03-29T10:58:00.684Z,100636.73
2023-03-29T11:00:38.381Z,100635.26
2023-03-29T11:03:31.838Z,100629.19
2023-03-29T11:06:11.434Z,100629.73
2023-03-29T11:08:52.665Z,100620.75
2023-03-29T11:11:44.116Z,100628.36
2023-03-29T11:14:25.915Z,100624.41
2023-03-29T11:17:07.170Z,100615.61
2023-03-29T11:20:02.410Z,100616.05
2023-03-29T11:22:44.063Z,100612.60
2023-03-29T11:25:29.760Z,100602.30
2023-03-29T11:28:07.686Z,100594.90
2023-03-29T11:30:44.356Z,100586.74
2023-03-29T11:33:25.640Z,100584.64
2023-03-29T11:36:05.982Z,100577.19
2023-03-29T11:38:42.297Z,100574.39
2023-03-29T11:41:19.785Z,100565.15
2023-03-29T11:43:55.125Z,100561.73
2023-03-29T11:46:31.467Z,100554.38
2023-03-29T11:49:06.180Z,100550.02
2023-03-29T11:51:39.411Z,100545.02
2023-03-29T11:54:19.079Z,100539.35
2023-03-29T11:56:56.436Z,100537.66
2023-03-29T11:59:33.602Z,100537.20
2023-03-29T12:02:06.676Z,100537.15
2023-03-29T12:04:43.637Z,100530.33
2023-03-29T12:07:20.090Z,100531.41
2023-03-29T12:09:55.711Z,100529.58
2023-03-29T12:12:31.412Z,100527.11
2023-03-29T12:15:09.220Z,100526.65
2023-03-29T12:17:44.529Z,100525.81
2023-03-29T12:20:20.470Z,100524.60
2023-03-29T12:22:52.514Z,100520.68
2023-03-29T12:25:27.884Z,100520.33
2023-03-29T12:28:13.927Z,100513.26
2023-03-29T12:31:02.707Z,100500.23
2023-03-29T12:34:02.402Z,100486.55
2023-03-29T12:37:33.567Z,100480.39
2023-03-29T12:40:37.073Z,100471.86
2023-03-29T12:43:31.408Z,100472.48
2023-03-29T12:46:24.195Z,100461.26
2023-03-29T12:48:58.381Z,100462.59
2023-03-29T12:51:34.342Z,100457.55
2023-03-29T12:54:09.710Z,100450.15
2023-03-29T12:56:43.702Z,100444.08
2023-03-29T12:59:28.825Z,100438.02
2023-03-29T13:02:08.589Z,100440.48
2023-03-29T13:04:52.658Z,100436.05
2023-03-29T13:07:44.919Z,100434.95
2023-03-29T13:10:36.810Z,100435.39
2023-03-29T13:13:19.123Z,100434.42
2023-03-29T13:15:50.032Z,100434.42
2023-03-29T13:18:34.530Z,100428.78
2023-03-29T13:21:12.418Z,100429.64
2023-03-29T13:23:55.179Z,100429.37
2023-03-29T13:26:38.453Z,100419.89
2023-03-29T13:29:30.880Z,100425.02
2023-03-29T13:32:08.882Z,100425.88
2023-03-29T13:34:47.606Z,100425.13
2023-03-29T13:37:32.215Z,100430.16
2023-03-29T13:40:02.698Z,100428.83
2023-03-29T13:42:42.411Z,100421.60
2023-03-29T13:45:28.858Z,100422.05
2023-03-29T13:48:05.747Z,100416.28
2023-03-29T13:50:52.570Z,100409.17
2023-03-29T13:53:30.127Z,100407.51
2023-03-29T13:56:03.026Z,100401.52
2023-03-29T13:58:39.208Z,100400.57
2023-03-29T14:01:11.687Z,100400.54
2023-03-29T14:03:46.586Z,100400.06
2023-03-29T14:06:23.170Z,100400.23
2023-03-29T14:08:55.076Z,100399.35
2023-03-29T14:11:28.884Z,100391.56
2023-03-29T14:14:01.338Z,100392.77
2023-03-29T14:16:36.973Z,100396.33
2023-03-29T14:19:13.629Z,100399.05
2023-03-29T14:21:44.884Z,100393.95
2023-03-29T14:24:21.659Z,100392.59
2023-03-29T14:26:53.827Z,100405.98
2023-03-29T14:29:25.578Z,100408.88
2023-03-29T14:31:56.515Z,100401.39
2023-03-29T14:34:28.695Z,100403.94
2023-03-29T14:36:59.931Z,100402.01
2023-03-29T14:39:33.218Z,100398.13
2023-03-29T14:42:04.441Z,100392.04
2023-03-29T14:44:36.161Z,100389.35
2023-03-29T14:47:06.817Z,100392.36
2023-03-29T14:49:37.642Z,100392.77
2023-03-29T14:52:09.070Z,100389.11
2023-03-29T14:54:42.676Z,100387.45
2023-03-29T14:57:18.617Z,100379.54
2023-03-29T14:59:56.296Z,100381.61
2023-03-29T15:02:29.472Z,100388.55
2023-03-29T15:05:04.665Z,100382.93
2023-03-29T15:07:39.863Z,100382.11
2023-03-29T15:10:18.415Z,100382.44
2023-03-29T15:12:49.599Z,100377.95
2023-03-29T15:15:20.954Z,100375.05
2023-03-29T15:17:52.642Z,100373.75
2023-03-29T15:20:25.591Z,100371.64
2023-03-29T15:23:00.048Z,100377.22
2023-03-29T15:25:36.339Z,100378.16
2023-03-29T15:28:07.677Z,100376.90
2023-03-29T15:30:49.476Z,100378.52
2023-03-29T15:33:26.126Z,100381.08
2023-03-29T15:35:56.701Z,100388.86
2023-03-29T15:38:40.505Z,100389.80
2023-03-29T15:41:15.551Z,100391.59
2023-03-29T15:43:46.357Z,100399.80
2023-03-29T15:46:16.856Z,100401.30
2023-03-29T15:48:47.240Z,100405.28
2023-03-29T15:51:17.613Z,100402.27
2023-03-29T15:53:48.004Z,100396.55
2023-03-29T15:56:22.989Z,100398.79
2023-03-29T15:58:53.321Z,100393.33
2023-03-29T16:01:34.782Z,100387.61
2023-03-29T16:04:07.831Z,100394.49
2023-03-29T16:06:38.736Z,100399.73
2023-03-29T16:09:12.046Z,100403.80
2023-03-29T16:11:43.744Z,100407.79
2023-03-29T16:14:23.060Z,100403.68
2023-03-29T16:16:55.329Z,100407.79
2023-03-29T16:19:26.753Z,100405.80
2023-03-29T16:21:57.990Z,100399.48
2023-03-29T16:24:31.212Z,100397.86
2023-03-29T16:27:02.633Z,100395.52
2023-03-29T16:29:33.043Z,100403.80
2023-03-29T16:32:05.484Z,100401.24
2023-03-29T16:34:38.206Z,100402.17
2023-03-29T16:37:08.685Z,100400.45
2023-03-29T16:39:39.501Z,100396.67
2023-03-29T16:42:12.221Z,100393.77
2023-03-29T16:44:44.479Z,100392.92
2023-03-29T16:47:14.933Z,100392.46
2023-03-29T16:49:48.597Z,100391.10
2023-03-29T16:52:18.981Z,100393.77
2023-03-29T16:54:49.326Z,100389.07
2023-03-29T16:57:20.867Z,100388.39
2023-03-29T16:59:51.666Z,100387.02
2023-03-29T17:02:22.106Z,100381.83
2023-03-29T17:04:52.577Z,100385.89
2023-03-29T17:07:23.019Z,100388.70
2023-03-29T17:09:53.430Z,100386.63
2023-03-29T17:12:24.008Z,100380.03
2023-03-29T17:14:54.441Z,100384.43
2023-03-29T17:17:24.956Z,100384.11
2023-03-29T17:19:57.215Z,100381.52
2023-03-29T17:22:28.065Z,100380.68
2023-03-29T17:24:58.508Z,100380.71
2023-03-29T17:27:28.891Z,100377.23
2023-03-29T17:29:59.260Z,100377.08
2023-03-29T17:32:29.786Z,100371.86
2023-03-29T17:35:00.750Z,100370.84
2023-03-29T17:37:31.207Z,100373.64
2023-03-29T17:40:07.195Z,100375.57
2023-03-29T17:42:37.618Z,100373.83
2023-03-29T17:45:10.932Z,100372.27
2023-03-29T17:47:41.732Z,100373.84
2023-03-29T17:50:14.427Z,100370.89
2023-03-29T17:52:45.217Z,100375.61
2023-03-29T17:55:17.221Z,100367.79
2023-03-29T17:57:48.958Z,100370.92
2023-03-29T18:00:20.936Z,100377.23
2023-03-29T18:02:51.526Z,100380.20
2023-03-29T18:05:22.075Z,100377.59
2023-03-29T18:07:52.556Z,100383.17
2023-03-29T18:10:22.950Z,100387.36
2023-03-29T18:12:54.539Z,100385.63
2023-03-29T18:15:25.078Z,100387.38
2023-03-29T18:17:55.743Z,100389.81
2023-03-29T18:20:26.241Z,100389.48
2023-03-29T18:22:57.077Z,100392.42
2023-03-29T18:25:27.588Z,100390.52
2023-03-29T18:27:58.022Z,100397.99
2023-03-29T18:30:28.806Z,100400.98
2023-03-29T18:32:59.199Z,100402.02
2023-03-29T18:35:29.633Z,100397.86
2023-03-29T18:38:00.000Z,100398.73
2023-03-29T18:40:30.572Z,100398.38
2023-03-29T18:43:00.988Z,100394.20
2023-03-29T18:45:31.523Z,100394.02
2023-03-29T18:48:05.388Z,100390.20
2023-03-29T18:50:36.099Z,100396.64
2023-03-29T18:53:06.722Z,100399.23
2023-03-29T18:55:37.147Z,100393.50
2023-03-29T18:58:07.564Z,100396.29
2023-03-29T19:00:38.082Z,100394.38
2023-03-29T19:03:08.889Z,100388.64
2023-03-29T19:05:41.510Z,100387.77
2023-03-29T19:08:12.008Z,100386.89
2023-03-29T19:10:42.615Z,100386.02
2023-03-29T19:13:13.074Z,100383.73
2023-03-29T19:15:43.830Z,100384.63
2023-03-29T19:18:14.342Z,100383.58
2023-03-29T19:20:44.950Z,100384.61
2023-03-29T19:23:15.363Z,100385.15
2023-03-29T19:25:51.767Z,100382.02
2023-03-29T19:28:22.750Z,100379.73
2023-03-29T19:30:53.276Z,100376.10
2023-03-29T19:33:23.759Z,100376.61
2023-03-29T19:35:54.407Z,100373.83
2023-03-29T19:38:24.905Z,100374.17
2023-03-29T19:40:55.493Z,100379.92
2023-03-29T19:43:26.077Z,100376.79
2023-03-29T19:45:56.463Z,100374.52
2023-03-29T19:48:28.150Z,100367.38
2023-03-29T19:51:03.607Z,100364.43
2023-03-29T19:53:37.166Z,100363.03
2023-03-29T19:56:11.922Z,100364.95
2023-03-29T19:58:42.571Z,100360.25
2023-03-29T20:01:15.522Z,100356.77
2023-03-29T20:03:46.921Z,100352.06
2023-03-29T20:06:18.084Z,100350.67
2023-03-29T20:08:48.796Z,100346.15
2023-03-29T20:11:23.783Z,100346.33
2023-03-29T20:13:54.118Z,100342.14
2023-03-29T20:16:26.150Z,100342.14
2023-03-29T20:18:56.624Z,100340.40
2023-03-29T20:21:27.137Z,100342.85
2023-03-29T20:23:58.037Z,100337.64
2023-03-29T20:26:29.080Z,100336.23
2023-03-29T20:28:59.663Z,100338.68
2023-03-29T20:31:31.389Z,100338.86
2023-03-29T20:34:01.845Z,100337.82
2023-03-29T20:36:32.368Z,100339.92
2023-03-29T20:39:03.528Z,100340.27
2023-03-29T20:41:33.957Z,100344.45
2023-03-29T20:44:04.779Z,100339.23
2023-03-29T20:46:35.914Z,100341.48
2023-03-29T20:49:08.969Z,100336.62
2023-03-29T20:51:42.464Z,100337.32
2023-03-29T20:54:13.545Z,100330.88
2023-03-29T20:56:45.550Z,100329.13
2023-03-29T20:59:15.940Z,100327.05
2023-03-29T21:01:47.136Z,100320.27
2023-03-29T21:04:17.537Z,100324.09
2023-03-29T21:06:49.743Z,100319.58
2023-03-29T21:09:22.107Z,100315.40
2023-03-29T21:11:53.439Z,100309.48
2023-03-29T21:14:23.811Z,100313.14
2023-03-29T21:16:54.189Z,100304.61
2023-03-29T21:19:24.685Z,100296.78
2023-03-29T21:21:55.002Z,100289.31
2023-03-29T21:24:25.546Z,100283.04
2023-03-29T21:26:56.024Z,100287.05
2023-03-29T21:29:26.794Z,100287.75
2023-03-29T21:31:57.310Z,100286.89
2023-03-29T21:34:27.859Z,100282.89
2023-03-29T21:36:58.349Z,100275.95
2023-03-29T21:39:30.042Z,100278.20
2023-03-29T21:42:01.755Z,100279.59
2023-03-29T21:44:34.234Z,100277.34
2023-03-29T21:47:04.975Z,100279.77
2023-03-29T21:49:35.387Z,100270.39
2023-03-29T21:52:05.702Z,100267.95
2023-03-29T21:54:36.523Z,100263.95
2023-03-29T21:57:07.548Z,100269.87
2023-03-29T21:59:38.016Z,100270.02
2023-03-29T22:02:08.452Z,100259.42
2023-03-29T22:04:39.087Z,100259.75
2023-03-29T22:07:10.706Z,100256.63
2023-03-29T22:09:42.348Z,100253.86
2023-03-29T22:12:12.715Z,100253.32
2023-03-29T22:14:42.980Z,100251.58
2023-03-29T22:17:13.562Z,100243.58
2023-03-29T22:19:43.956Z,100240.25
2023-03-29T22:22:16.456Z,100242.35
2023-03-29T22:24:46.852Z,100232.60
2023-03-29T22:27:17.173Z,100235.90
2023-03-29T22:29:47.614Z,100234.32
2023-03-29T22:32:18.076Z,100231.87
2023-03-29T22:34:48.769Z,100227.02
2023-03-29T22:37:19.169Z,100223.17
2023-03-29T22:39:49.635Z,100221.97
2023-03-29T22:42:20.161Z,100213.08
2023-03-29T22:44:50.576Z,100207.52
2023-03-29T22:47:21.171Z,100209.63
2023-03-29T22:49:51.537Z,100212.06
2023-03-29T22:52:21.979Z,100209.11
2023-03-29T22:54:52.589Z,100209.45
2023-03-29T22:57:26.113Z,100214.33
2023-03-29T22:59:56.472Z,100212.42
2023-03-29T23:02:27.256Z,100210.70
2023-03-29T23:04:57.644Z,100205.64
2023-03-29T23:07:29.234Z,100202.86
2023-03-29T23:09:59.885Z,100203.04
2023-03-29T23:12:31.180Z,100200.41
2023-03-29T23:15:01.478Z,100199.39
2023-03-29T23:17:32.765Z,100199.56
2023-03-29T23:20:06.005Z,100196.78
2023-03-29T23:22:36.471Z,100198.52
2023-03-29T23:25:07.685Z,100192.96
2023-03-29T23:27:38.297Z,100192.42
2023-03-29T23:30:11.836Z,100191.22
2023-03-29T23:32:42.205Z,100190.51
2023-03-29T23:35:12.842Z,100192.09
2023-03-29T23:37:43.233Z,100189.48
2023-03-29T23:40:15.594Z,100190.19
2023-03-29T23:42:48.315Z,100184.27
2023-03-29T23:45:19.935Z,100186.19
2023-03-29T23:47:50.358Z,100184.61
2023-03-29T23:50:22.526Z,100183.93
2023-03-29T23:52:52.896Z,100178.36
2023-03-29T23:55:23.686Z,100177.84
2023-03-29T23:57:53.987Z,100174.54
